Time;durP1;ratioP1;P1;durP2;ratioP2;P2;SDS_P1;SDS_P2;PMS_P1;PMS_P2;Temp;Humidity;BMP_temperature;BMP_pressure;BME280_temperature;BME280_humidity;BME280_pressure;Samples;Min_cycle;Max_cycle;Signal;HPM_P1;HPM_P2
2022/12/26 00:00:40;;;;;;;3.55;2.40;;;;;;;;;;5107293;28;20251;-89
2022/12/26 00:03:08;;;;;;;3.80;2.80;;;;;;;;;;5109154;28;20213;-89
2022/12/26 00:05:36;;;;;;;3.40;2.67;;;;;;;;;;5113007;28;20239;-89
2022/12/26 00:08:03;;;;;;;3.17;2.47;;;;;;;;;;5110666;27;20284;-89
2022/12/26 00:10:31;;;;;;;3.87;2.90;;;;;;;;;;5111053;28;20214;-89
2022/12/26 00:12:58;;;;;;;3.42;2.47;;;;;;;;;;5113785;28;20235;-89
2022/12/26 00:15:27;;;;;;;4.00;2.30;;;;;;;;;;5111582;28;20235;-89
2022/12/26 00:17:55;;;;;;;3.60;2.53;;;;;;;;;;5112078;28;20207;-90
2022/12/26 00:20:23;;;;;;;4.13;2.50;;;;;;;;;;5109977;28;20220;-89
2022/12/26 00:22:50;;;;;;;5.00;2.38;;;;;;;;;;5111255;28;20217;-89
2022/12/26 00:25:18;;;;;;;3.70;2.20;;;;;;;;;;5106458;28;20276;-90
2022/12/26 00:27:45;;;;;;;5.57;2.60;;;;;;;;;;5107399;28;20209;-90
2022/12/26 00:30:15;;;;;;;4.82;2.70;;;;;;;;;;5107287;27;20201;-89
2022/12/26 00:32:42;;;;;;;3.85;2.47;;;;;;;;;;5109322;28;20240;-90
2022/12/26 00:35:11;;;;;;;2.65;2.28;;;;;;;;;;5107371;28;20224;-89
2022/12/26 00:37:38;;;;;;;3.93;2.43;;;;;;;;;;5107332;27;20218;-89
2022/12/26 00:40:06;;;;;;;3.60;2.08;;;;;;;;;;5109590;27;20241;-90
2022/12/26 00:42:34;;;;;;;4.03;2.50;;;;;;;;;;5110783;28;20236;-89
2022/12/26 00:45:01;;;;;;;4.40;2.50;;;;;;;;;;5106585;28;20262;-89
2022/12/26 00:47:28;;;;;;;3.20;2.17;;;;;;;;;;5107488;28;20217;-89
2022/12/26 00:49:56;;;;;;;3.55;2.28;;;;;;;;;;5102740;28;20208;-90
2022/12/26 00:52:25;;;;;;;8.43;4.80;;;;;;;;;;5106122;27;20238;-89
2022/12/26 00:54:52;;;;;;;4.30;2.30;;;;;;;;;;5105083;28;20203;-89
2022/12/26 00:57:19;;;;;;;3.00;1.90;;;;;;;;;;5101564;28;20216;-89
2022/12/26 00:59:46;;;;;;;3.00;2.42;;;;;;;;;;5105008;28;20243;-89
2022/12/26 01:04:55;;;;;;;2.50;2.30;;;;;;;;;;5106492;28;20193;-89
2022/12/26 01:07:22;;;;;;;5.77;2.40;;;;;;;;;;5105302;28;20233;-89
2022/12/26 01:09:51;;;;;;;3.80;2.17;;;;;;;;;;5106076;28;20209;-88
2022/12/26 01:12:19;;;;;;;4.40;2.10;;;;;;;;;;5106730;28;20206;-89
2022/12/26 01:14:48;;;;;;;4.67;2.50;;;;;;;;;;5106329;28;20209;-89
2022/12/26 01:17:15;;;;;;;3.40;2.30;;;;;;;;;;5106263;28;20209;-88
2022/12/26 01:19:43;;;;;;;3.70;2.60;;;;;;;;;;5102836;28;20274;-89
2022/12/26 01:22:10;;;;;;;4.17;2.50;;;;;;;;;;5108113;28;20288;-88
2022/12/26 01:24:40;;;;;;;3.80;2.43;;;;;;;;;;5108877;28;20212;-89
2022/12/26 01:27:09;;;;;;;2.58;2.30;;;;;;;;;;5103542;28;20227;-89
2022/12/26 01:29:36;;;;;;;2.70;2.13;;;;;;;;;;5110179;27;20205;-88
2022/12/26 01:32:04;;;;;;;4.73;2.50;;;;;;;;;;5112461;27;20222;-88
2022/12/26 01:34:31;;;;;;;4.32;2.30;;;;;;;;;;5107134;28;20213;-88
2022/12/26 01:36:59;;;;;;;4.28;2.33;;;;;;;;;;5109826;28;20233;-89
2022/12/26 01:39:29;;;;;;;3.93;2.20;;;;;;;;;;5108265;28;20223;-89
2022/12/26 01:42:01;;;;;;;2.80;2.20;;;;;;;;;;5107281;28;20211;-89
2022/12/26 01:44:47;;;;;;;5.10;2.67;;;;;;;;;;5107237;28;20212;-88
2022/12/26 01:47:15;;;;;;;3.57;2.27;;;;;;;;;;5106693;28;20270;-88
2022/12/26 01:49:47;;;;;;;3.40;2.20;;;;;;;;;;5108099;27;20285;-88
2022/12/26 01:52:17;;;;;;;3.37;2.20;;;;;;;;;;5107744;28;20254;-88
2022/12/26 01:54:46;;;;;;;2.80;2.20;;;;;;;;;;5110415;27;20209;-88
2022/12/26 01:57:17;;;;;;;5.00;2.43;;;;;;;;;;5110131;28;20194;-88
2022/12/26 01:59:45;;;;;;;4.83;2.27;;;;;;;;;;5108833;27;20229;-88
2022/12/26 02:02:12;;;;;;;4.32;2.30;;;;;;;;;;5104831;28;20198;-88
2022/12/26 02:07:30;;;;;;;3.70;2.37;;;;;;;;;;5104081;28;20197;-88
2022/12/26 02:09:58;;;;;;;4.53;2.60;;;;;;;;;;5110949;28;20238;-88
2022/12/26 02:12:26;;;;;;;7.33;2.70;;;;;;;;;;5108942;27;20220;-88
2022/12/26 02:14:53;;;;;;;4.88;2.53;;;;;;;;;;5108347;28;20233;-88
2022/12/26 02:17:31;;;;;;;6.50;2.88;;;;;;;;;;5109299;28;20205;-88
2022/12/26 02:20:06;;;;;;;3.17;2.45;;;;;;;;;;5105803;28;20288;-89
2022/12/26 02:22:49;;;;;;;2.67;2.40;;;;;;;;;;5108510;28;20216;-89
2022/12/26 02:25:31;;;;;;;3.43;2.47;;;;;;;;;;5108189;28;20206;-88
2022/12/26 02:28:20;;;;;;;4.10;2.57;;;;;;;;;;5093299;28;20233;-88
2022/12/26 02:30:53;;;;;;;3.75;2.60;;;;;;;;;;5106775;28;20202;-89
2022/12/26 02:33:32;;;;;;;4.15;2.50;;;;;;;;;;5106997;28;20304;-88
2022/12/26 02:36:10;;;;;;;3.87;2.17;;;;;;;;;;5105468;28;20205;-89
2022/12/26 02:38:41;;;;;;;4.15;2.58;;;;;;;;;;5107172;28;20205;-88
2022/12/26 02:41:19;;;;;;;4.03;2.50;;;;;;;;;;5109506;28;20225;-88
2022/12/26 02:43:49;;;;;;;3.60;2.30;;;;;;;;;;5108014;28;20224;-89
2022/12/26 02:49:16;;;;;;;3.30;2.40;;;;;;;;;;5105463;28;20205;-88
2022/12/26 03:14:07;;;;;;;4.40;2.28;;;;;;;;;;5108351;28;20189;-89
2022/12/26 03:19:22;;;;;;;2.95;2.08;;;;;;;;;;5108168;27;20207;-88
2022/12/26 03:21:49;;;;;;;5.40;2.42;;;;;;;;;;5111712;27;20229;-89
2022/12/26 03:24:19;;;;;;;6.10;2.80;;;;;;;;;;5112127;27;20266;-89
2022/12/26 03:26:47;;;;;;;3.45;2.60;;;;;;;;;;5113419;28;20208;-89
2022/12/26 03:32:11;;;;;;;3.33;2.10;;;;;;;;;;5060595;28;20210;-88
2022/12/26 03:34:40;;;;;;;4.17;2.70;;;;;;;;;;5111590;28;20206;-89
2022/12/26 03:37:22;;;;;;;3.20;2.27;;;;;;;;;;5112281;28;20209;-87
2022/12/26 04:19:26;;;;;;;5.67;2.20;;;;;;;;;;5108640;28;20284;-89
2022/12/26 04:44:13;;;;;;;5.97;2.37;;;;;;;;;;5102819;28;20205;-88
2022/12/26 04:46:42;;;;;;;4.37;2.00;;;;;;;;;;5108577;28;20232;-88
2022/12/26 04:51:56;;;;;;;4.20;2.13;;;;;;;;;;5112925;28;20309;-88
2022/12/26 04:54:23;;;;;;;4.50;2.30;;;;;;;;;;5108006;27;20194;-88
2022/12/26 04:56:54;;;;;;;4.90;2.30;;;;;;;;;;5113627;28;20231;-88
2022/12/26 04:59:22;;;;;;;4.07;1.93;;;;;;;;;;5109716;28;20256;-88
2022/12/26 05:10:07;;;;;;;4.80;2.37;;;;;;;;;;5111339;28;20204;-88
2022/12/26 05:12:36;;;;;;;3.07;2.00;;;;;;;;;;5108416;27;20226;-87
2022/12/26 05:15:03;;;;;;;7.00;2.30;;;;;;;;;;5113534;27;20339;-88
2022/12/26 05:28:42;;;;;;;4.90;2.20;;;;;;;;;;5113662;28;20234;-87
2022/12/26 05:31:10;;;;;;;3.27;2.10;;;;;;;;;;5115060;28;20208;-88
2022/12/26 05:36:27;;;;;;;5.22;2.20;;;;;;;;;;5114221;28;20193;-88
2022/12/26 05:38:56;;;;;;;3.63;1.85;;;;;;;;;;5107452;28;20368;-88
2022/12/26 05:41:24;;;;;;;3.40;2.30;;;;;;;;;;5114095;28;20225;-88
2022/12/26 05:43:56;;;;;;;2.67;2.03;;;;;;;;;;5112547;28;20273;-88
2022/12/26 05:46:23;;;;;;;5.23;2.23;;;;;;;;;;5111305;28;20255;-88
2022/12/26 05:48:50;;;;;;;4.77;2.20;;;;;;;;;;5108670;28;20202;-87
2022/12/26 05:51:18;;;;;;;3.73;2.00;;;;;;;;;;5112322;28;20205;-88
2022/12/26 05:53:45;;;;;;;2.23;2.03;;;;;;;;;;5104209;28;20206;-89
2022/12/26 05:56:14;;;;;;;7.07;2.30;;;;;;;;;;5113757;28;20247;-88
2022/12/26 05:58:41;;;;;;;2.53;1.90;;;;;;;;;;5112288;28;20209;-88
2022/12/26 06:01:11;;;;;;;4.60;2.13;;;;;;;;;;5103904;28;20249;-88
2022/12/26 06:03:40;;;;;;;9.23;2.73;;;;;;;;;;5112507;28;20269;-88
2022/12/26 06:06:07;;;;;;;5.50;1.90;;;;;;;;;;5113050;28;20217;-88
2022/12/26 06:08:35;;;;;;;3.53;2.10;;;;;;;;;;5112673;28;20205;-88
2022/12/26 06:11:05;;;;;;;4.83;2.50;;;;;;;;;;5113174;28;20206;-88
2022/12/26 06:13:35;;;;;;;4.43;1.97;;;;;;;;;;5113271;28;20200;-88
2022/12/26 06:16:07;;;;;;;3.97;1.90;;;;;;;;;;5113367;28;20677;-88
2022/12/26 06:18:39;;;;;;;3.30;1.90;;;;;;;;;;5108325;28;20224;-88
2022/12/26 06:21:10;;;;;;;5.17;1.97;;;;;;;;;;5113756;28;20244;-88
2022/12/26 06:23:43;;;;;;;6.67;5.37;;;;;;;;;;5103639;28;20255;-88
2022/12/26 06:26:14;;;;;;;4.00;2.13;;;;;;;;;;5105964;28;20222;-88
2022/12/26 06:28:48;;;;;;;2.60;2.20;;;;;;;;;;5108525;28;20209;-88
2022/12/26 06:31:16;;;;;;;3.20;2.10;;;;;;;;;;5110399;28;20212;-88
2022/12/26 06:33:47;;;;;;;3.20;1.87;;;;;;;;;;5114402;28;20215;-89
2022/12/26 06:36:15;;;;;;;3.60;2.07;;;;;;;;;;5108232;28;20193;-89
2022/12/26 06:38:43;;;;;;;5.50;2.20;;;;;;;;;;5114273;28;20297;-89
2022/12/26 06:41:11;;;;;;;4.33;1.90;;;;;;;;;;5106325;28;20228;-88
2022/12/26 06:43:38;;;;;;;3.87;2.30;;;;;;;;;;5112681;28;20212;-89
2022/12/26 06:46:10;;;;;;;4.13;2.50;;;;;;;;;;5112462;28;20197;-88
2022/12/26 06:48:38;;;;;;;3.77;2.20;;;;;;;;;;5112299;28;20209;-88
2022/12/26 06:51:07;;;;;;;4.23;2.30;;;;;;;;;;5110258;28;20201;-89
2022/12/26 06:53:35;;;;;;;4.57;2.20;;;;;;;;;;5112212;28;20213;-89
2022/12/26 06:56:06;;;;;;;3.93;2.40;;;;;;;;;;5114026;28;20205;-88
2022/12/26 06:58:33;;;;;;;6.33;2.77;;;;;;;;;;5110349;28;20208;-89
2022/12/26 07:01:04;;;;;;;4.57;2.70;;;;;;;;;;5111292;28;20221;-89
2022/12/26 07:03:31;;;;;;;4.10;2.77;;;;;;;;;;5111246;28;20197;-89
2022/12/26 07:06:02;;;;;;;3.67;2.17;;;;;;;;;;5111512;28;20265;-89
2022/12/26 07:08:35;;;;;;;4.97;2.60;;;;;;;;;;5110562;27;20225;-90
2022/12/26 07:11:06;;;;;;;4.97;2.90;;;;;;;;;;5107872;28;20250;-89
2022/12/26 07:13:45;;;;;;;6.10;2.53;;;;;;;;;;5108578;27;20217;-90
2022/12/26 07:16:18;;;;;;;5.40;2.77;;;;;;;;;;5105543;27;20232;-89
2022/12/26 07:18:45;;;;;;;5.03;2.40;;;;;;;;;;5110075;28;20201;-89
2022/12/26 07:21:14;;;;;;;3.57;2.60;;;;;;;;;;5103406;28;20214;-90
2022/12/26 07:23:59;;;;;;;3.73;2.40;;;;;;;;;;5103806;28;20213;-90
2022/12/26 07:26:27;;;;;;;4.33;2.73;;;;;;;;;;5107537;28;20212;-89
2022/12/26 07:28:55;;;;;;;4.33;3.00;;;;;;;;;;5106654;28;20205;-89
2022/12/26 07:31:28;;;;;;;3.80;2.27;;;;;;;;;;5105311;27;20197;-89
2022/12/26 07:33:59;;;;;;;6.50;2.70;;;;;;;;;;5100149;27;20209;-89
2022/12/26 07:36:26;;;;;;;5.17;2.90;;;;;;;;;;5101524;28;20234;-89
2022/12/26 07:38:57;;;;;;;4.00;2.40;;;;;;;;;;5105152;28;20198;-89
2022/12/26 07:44:09;;;;;;;4.77;3.23;;;;;;;;;;5103413;27;20231;-89
2022/12/26 07:46:37;;;;;;;5.10;2.70;;;;;;;;;;5101676;28;20232;-88
2022/12/26 07:49:04;;;;;;;3.00;2.50;;;;;;;;;;5104198;27;20209;-90
2022/12/26 07:51:32;;;;;;;3.57;2.30;;;;;;;;;;5103486;27;20264;-87
2022/12/26 07:54:01;;;;;;;4.57;2.50;;;;;;;;;;5102530;28;20202;-88
2022/12/26 07:56:28;;;;;;;4.60;2.57;;;;;;;;;;5109186;27;20198;-90
2022/12/26 07:58:56;;;;;;;5.37;2.67;;;;;;;;;;5104093;28;20296;-89
2022/12/26 08:01:25;;;;;;;4.20;2.50;;;;;;;;;;5108916;27;20249;-89
2022/12/26 08:03:53;;;;;;;4.70;2.67;;;;;;;;;;5102122;27;20210;-89
2022/12/26 08:06:21;;;;;;;3.13;2.40;;;;;;;;;;5103967;27;20206;-89
2022/12/26 08:08:48;;;;;;;4.20;2.30;;;;;;;;;;5107862;27;20201;-88
2022/12/26 08:11:18;;;;;;;3.70;2.30;;;;;;;;;;5108191;27;20201;-89
2022/12/26 08:13:45;;;;;;;2.70;1.90;;;;;;;;;;5108037;27;20232;-89
2022/12/26 08:16:13;;;;;;;4.37;2.20;;;;;;;;;;5112260;27;20213;-89
2022/12/26 08:18:41;;;;;;;4.60;2.13;;;;;;;;;;5110539;27;20254;-88
2022/12/26 08:21:08;;;;;;;4.43;2.10;;;;;;;;;;5111609;28;20238;-89
2022/12/26 08:23:36;;;;;;;3.00;2.10;;;;;;;;;;5103906;28;20220;-89
2022/12/26 08:26:06;;;;;;;4.00;2.40;;;;;;;;;;5103424;28;20234;-88
2022/12/26 08:28:35;;;;;;;2.50;1.80;;;;;;;;;;5104755;28;20228;-88
2022/12/26 08:31:05;;;;;;;2.20;1.80;;;;;;;;;;5104300;28;20213;-88
2022/12/26 08:33:35;;;;;;;2.83;2.03;;;;;;;;;;5105279;28;20304;-89
2022/12/26 08:36:05;;;;;;;3.87;2.37;;;;;;;;;;5104193;27;20197;-89
2022/12/26 08:38:38;;;;;;;3.67;2.03;;;;;;;;;;5103244;28;20661;-89
2022/12/26 08:41:18;;;;;;;3.10;1.80;;;;;;;;;;5108393;27;20277;-90
2022/12/26 08:43:50;;;;;;;2.93;1.90;;;;;;;;;;5100284;27;20202;-90
2022/12/26 08:46:25;;;;;;;2.57;1.80;;;;;;;;;;5103158;28;20273;-88
2022/12/26 08:48:56;;;;;;;3.00;1.93;;;;;;;;;;5099584;28;20202;-89
2022/12/26 08:51:32;;;;;;;2.80;2.00;;;;;;;;;;5101824;28;20208;-90
2022/12/26 08:54:08;;;;;;;2.83;1.83;;;;;;;;;;5107026;28;20209;-89
2022/12/26 08:56:42;;;;;;;2.33;1.83;;;;;;;;;;5105732;28;20216;-90
2022/12/26 08:59:24;;;;;;;1.90;1.80;;;;;;;;;;5108359;27;20244;-90
2022/12/26 09:01:56;;;;;;;2.67;2.40;;;;;;;;;;5103979;28;20312;-90
2022/12/26 09:04:27;;;;;;;3.27;1.80;;;;;;;;;;5098689;28;20207;-89
2022/12/26 09:06:56;;;;;;;2.90;1.70;;;;;;;;;;5104221;28;20212;-88
2022/12/26 09:09:23;;;;;;;2.43;1.63;;;;;;;;;;5096940;28;20205;-89
2022/12/26 09:11:52;;;;;;;1.77;1.43;;;;;;;;;;5100923;27;20210;-88
2022/12/26 09:14:21;;;;;;;2.97;2.20;;;;;;;;;;5100391;27;20205;-88
2022/12/26 09:16:50;;;;;;;5.03;3.50;;;;;;;;;;5100491;27;20214;-88
2022/12/26 09:19:17;;;;;;;5.13;4.63;;;;;;;;;;5105349;28;20209;-88
2022/12/26 09:21:45;;;;;;;6.03;4.10;;;;;;;;;;5101234;28;20237;-88
2022/12/26 09:24:14;;;;;;;3.40;2.87;;;;;;;;;;5102743;28;20206;-88
2022/12/26 09:26:41;;;;;;;2.70;1.77;;;;;;;;;;5097895;28;20210;-89
2022/12/26 09:29:10;;;;;;;3.03;1.90;;;;;;;;;;5101236;28;20201;-89
2022/12/26 09:31:45;;;;;;;3.67;1.60;;;;;;;;;;5096886;28;20317;-89
2022/12/26 09:34:13;;;;;;;2.47;1.80;;;;;;;;;;5099190;27;20212;-89
2022/12/26 09:36:41;;;;;;;1.63;1.53;;;;;;;;;;5096587;27;20213;-90
2022/12/26 09:39:11;;;;;;;1.97;1.70;;;;;;;;;;5102680;27;20205;-90
2022/12/26 09:42:00;;;;;;;2.13;1.70;;;;;;;;;;5101210;28;20229;-91
2022/12/26 09:44:31;;;;;;;2.20;1.53;;;;;;;;;;5100869;28;20198;-90
2022/12/26 09:47:07;;;;;;;2.27;1.50;;;;;;;;;;5104768;28;20204;-91
2022/12/26 09:49:39;;;;;;;2.60;1.87;;;;;;;;;;5102282;28;20249;-90
2022/12/26 09:52:11;;;;;;;2.70;1.57;;;;;;;;;;5102282;28;20241;-89
2022/12/26 09:54:41;;;;;;;2.07;1.73;;;;;;;;;;5101870;28;20202;-89
2022/12/26 09:57:43;;;;;;;3.80;1.80;;;;;;;;;;5104023;27;20208;-89
2022/12/26 10:00:17;;;;;;;3.37;2.27;;;;;;;;;;5099669;28;20207;-90
2022/12/26 10:02:47;;;;;;;3.23;1.93;;;;;;;;;;5105595;28;20225;-90
2022/12/26 10:05:17;;;;;;;5.37;2.43;;;;;;;;;;5105023;28;20212;-89
2022/12/26 10:07:48;;;;;;;4.40;2.87;;;;;;;;;;5097441;27;20217;-89
2022/12/26 10:10:21;;;;;;;4.30;2.20;;;;;;;;;;5102775;28;20206;-89
2022/12/26 10:12:56;;;;;;;4.07;2.30;;;;;;;;;;5099064;28;20201;-88
2022/12/26 10:15:44;;;;;;;2.73;2.03;;;;;;;;;;5097352;28;20213;-89
2022/12/26 10:18:17;;;;;;;3.27;1.90;;;;;;;;;;5097669;28;20303;-89
2022/12/26 10:20:47;;;;;;;3.73;2.00;;;;;;;;;;5102634;28;20269;-89
2022/12/26 10:23:30;;;;;;;3.43;2.10;;;;;;;;;;5101699;28;20225;-89
2022/12/26 10:26:00;;;;;;;2.17;1.53;;;;;;;;;;5100350;28;20258;-89
2022/12/26 10:28:35;;;;;;;4.40;1.87;;;;;;;;;;5099203;28;20519;-90
2022/12/26 10:31:07;;;;;;;4.10;1.50;;;;;;;;;;5097926;28;20201;-90
2022/12/26 10:33:45;;;;;;;2.60;1.47;;;;;;;;;;5100092;28;20205;-89
2022/12/26 10:36:22;;;;;;;2.03;1.40;;;;;;;;;;5101981;28;20224;-90
2022/12/26 10:38:52;;;;;;;3.07;1.50;;;;;;;;;;5106642;28;20205;-89
2022/12/26 10:41:25;;;;;;;2.40;1.70;;;;;;;;;;5107389;28;20205;-89
2022/12/26 10:43:52;;;;;;;3.07;1.40;;;;;;;;;;5099766;28;20247;-89
2022/12/26 10:46:32;;;;;;;3.57;1.50;;;;;;;;;;5104631;28;20209;-89
2022/12/26 10:49:01;;;;;;;2.23;1.37;;;;;;;;;;5096011;28;20263;-89
2022/12/26 10:51:28;;;;;;;2.77;1.60;;;;;;;;;;5098562;28;20233;-89
2022/12/26 10:53:57;;;;;;;2.90;1.37;;;;;;;;;;5100534;28;20209;-89
2022/12/26 10:56:27;;;;;;;4.03;1.50;;;;;;;;;;5101942;28;20226;-89
2022/12/26 10:59:01;;;;;;;2.77;1.50;;;;;;;;;;5104741;28;20414;-90
2022/12/26 11:01:36;;;;;;;3.07;1.47;;;;;;;;;;5100203;28;20212;-89
2022/12/26 11:04:07;;;;;;;2.07;1.27;;;;;;;;;;5100035;28;20221;-89
2022/12/26 11:06:39;;;;;;;5.70;1.30;;;;;;;;;;5099805;28;20212;-90
2022/12/26 11:09:21;;;;;;;3.10;1.47;;;;;;;;;;5099856;28;20202;-89
2022/12/26 11:11:51;;;;;;;3.80;1.50;;;;;;;;;;5097713;28;20233;-89
2022/12/26 11:14:33;;;;;;;4.93;1.27;;;;;;;;;;5101993;28;20213;-89
2022/12/26 11:17:05;;;;;;;3.13;1.10;;;;;;;;;;5098324;28;20248;-89
2022/12/26 11:19:35;;;;;;;2.83;1.40;;;;;;;;;;5103346;28;20202;-89
2022/12/26 11:22:20;;;;;;;1.93;1.27;;;;;;;;;;5099927;28;20229;-90
2022/12/26 11:25:02;;;;;;;2.97;1.50;;;;;;;;;;5103207;28;20281;-90
2022/12/26 11:27:37;;;;;;;3.53;1.43;;;;;;;;;;5098166;28;20220;-89
2022/12/26 11:30:16;;;;;;;3.63;1.30;;;;;;;;;;5091443;28;20355;-89
2022/12/26 11:32:47;;;;;;;2.77;1.33;;;;;;;;;;5101547;28;20208;-90
2022/12/26 11:35:21;;;;;;;1.53;1.27;;;;;;;;;;5100079;28;20201;-89
2022/12/26 11:37:52;;;;;;;2.60;1.50;;;;;;;;;;5097916;28;20236;-90
2022/12/26 11:40:20;;;;;;;2.13;1.50;;;;;;;;;;5103104;28;20207;-89
2022/12/26 11:42:53;;;;;;;1.67;1.23;;;;;;;;;;5106897;28;20267;-89
2022/12/26 11:45:22;;;;;;;2.33;1.20;;;;;;;;;;5096350;28;20204;-89
2022/12/26 11:47:53;;;;;;;4.40;1.40;;;;;;;;;;5108913;28;20265;-89
2022/12/26 11:50:25;;;;;;;2.20;1.50;;;;;;;;;;5111757;27;20205;-89
2022/12/26 11:53:09;;;;;;;4.03;1.40;;;;;;;;;;5106237;28;20243;-89
2022/12/26 11:55:38;;;;;;;3.20;1.63;;;;;;;;;;5104993;28;20214;-89
2022/12/26 11:58:19;;;;;;;2.10;1.30;;;;;;;;;;5105876;28;20213;-89
2022/12/26 12:01:05;;;;;;;1.87;1.00;;;;;;;;;;5099173;28;20229;-89
2022/12/26 12:03:34;;;;;;;3.43;1.20;;;;;;;;;;5098078;28;20313;-89
2022/12/26 12:06:07;;;;;;;3.97;1.40;;;;;;;;;;5108256;27;20288;-89
2022/12/26 12:08:44;;;;;;;4.50;1.43;;;;;;;;;;5106243;28;20231;-89
2022/12/26 12:11:28;;;;;;;2.07;1.20;;;;;;;;;;5105779;28;20208;-89
2022/12/26 12:14:13;;;;;;;3.27;1.60;;;;;;;;;;5102674;28;20252;-89
2022/12/26 12:16:50;;;;;;;3.97;1.50;;;;;;;;;;5104771;28;20235;-89
2022/12/26 12:19:37;;;;;;;2.63;1.20;;;;;;;;;;5103258;28;20237;-89
2022/12/26 12:22:20;;;;;;;2.97;1.33;;;;;;;;;;5106074;28;20216;-89
2022/12/26 12:24:53;;;;;;;2.30;1.20;;;;;;;;;;5107516;28;20208;-89
2022/12/26 12:27:23;;;;;;;2.90;1.30;;;;;;;;;;5106048;28;20252;-89
2022/12/26 12:30:05;;;;;;;1.53;1.20;;;;;;;;;;5098935;28;20275;-90
2022/12/26 12:32:40;;;;;;;4.37;1.10;;;;;;;;;;5107572;28;20269;-89
2022/12/26 12:35:23;;;;;;;4.07;1.27;;;;;;;;;;5104653;28;20212;-89
2022/12/26 12:38:03;;;;;;;1.27;0.80;;;;;;;;;;5105803;28;20198;-89
2022/12/26 12:40:35;;;;;;;4.40;1.27;;;;;;;;;;5101501;27;20246;-89
2022/12/26 12:43:08;;;;;;;3.83;1.10;;;;;;;;;;5102378;28;20210;-89
2022/12/26 12:45:36;;;;;;;2.10;0.83;;;;;;;;;;5101054;28;20213;-89
2022/12/26 12:48:21;;;;;;;2.87;1.10;;;;;;;;;;5104950;28;20221;-89
2022/12/26 12:50:51;;;;;;;1.33;1.00;;;;;;;;;;5104649;28;20213;-89
2022/12/26 12:53:25;;;;;;;3.00;1.30;;;;;;;;;;5103509;28;20319;-89
2022/12/26 12:56:01;;;;;;;2.33;1.00;;;;;;;;;;5103096;28;20217;-89
2022/12/26 12:58:33;;;;;;;4.00;1.17;;;;;;;;;;5111657;27;20201;-89
2022/12/26 13:01:03;;;;;;;3.53;1.20;;;;;;;;;;5101001;28;20214;-89
2022/12/26 13:03:34;;;;;;;2.83;1.00;;;;;;;;;;5104750;28;20245;-90
2022/12/26 13:06:05;;;;;;;3.60;1.30;;;;;;;;;;5105227;28;20218;-90
2022/12/26 13:08:37;;;;;;;4.67;1.53;;;;;;;;;;5105548;28;20255;-89
2022/12/26 13:11:10;;;;;;;3.60;1.20;;;;;;;;;;5103200;28;20229;-89
2022/12/26 13:13:39;;;;;;;1.70;0.90;;;;;;;;;;5105520;27;20280;-89
2022/12/26 13:16:11;;;;;;;1.83;0.90;;;;;;;;;;5103906;28;20309;-90
2022/12/26 13:18:41;;;;;;;2.63;1.20;;;;;;;;;;5103643;28;20300;-90
2022/12/26 13:21:11;;;;;;;2.67;0.97;;;;;;;;;;5104428;28;20420;-89
2022/12/26 13:26:30;;;;;;;0.90;0.70;;;;;;;;;;5099212;28;20201;-89
2022/12/26 13:29:07;;;;;;;1.47;0.80;;;;;;;;;;5096822;28;20263;-89
2022/12/26 13:31:35;;;;;;;2.20;0.80;;;;;;;;;;5109743;27;20240;-90
2022/12/26 13:34:05;;;;;;;0.80;0.70;;;;;;;;;;5105237;28;20230;-89
2022/12/26 13:36:53;;;;;;;0.90;0.57;;;;;;;;;;5092419;28;20244;-90
2022/12/26 13:39:29;;;;;;;1.67;1.00;;;;;;;;;;5092502;28;20215;-90
2022/12/26 13:44:43;;;;;;;3.63;0.90;;;;;;;;;;5100831;28;20228;-89
2022/12/26 13:47:27;;;;;;;3.57;1.20;;;;;;;;;;5105474;28;20214;-89
2022/12/26 13:49:56;;;;;;;3.37;1.07;;;;;;;;;;5105773;28;20206;-89
2022/12/26 13:52:34;;;;;;;4.20;1.30;;;;;;;;;;5102778;28;20225;-89
2022/12/26 13:55:20;;;;;;;1.67;0.80;;;;;;;;;;5104448;28;20258;-89
2022/12/26 13:58:07;;;;;;;1.00;0.60;;;;;;;;;;5103067;28;20224;-89
2022/12/26 14:00:43;;;;;;;1.03;0.50;;;;;;;;;;5101741;28;20210;-89
2022/12/26 14:03:28;;;;;;;1.40;0.70;;;;;;;;;;5099351;28;20232;-90
2022/12/26 14:06:04;;;;;;;0.77;0.63;;;;;;;;;;5108929;27;20237;-89
2022/12/26 14:08:35;;;;;;;0.57;0.57;;;;;;;;;;5097446;28;20213;-89
2022/12/26 14:11:11;;;;;;;1.77;0.80;;;;;;;;;;5100314;28;20251;-90
2022/12/26 14:13:49;;;;;;;1.50;0.57;;;;;;;;;;5103177;28;20215;-89
2022/12/26 14:16:20;;;;;;;1.80;0.87;;;;;;;;;;5096596;28;20231;-89
2022/12/26 14:18:51;;;;;;;1.03;0.67;;;;;;;;;;5099315;28;20201;-89
2022/12/26 14:21:32;;;;;;;2.10;0.63;;;;;;;;;;5100152;28;20244;-89
2022/12/26 14:24:02;;;;;;;1.83;0.93;;;;;;;;;;5107992;28;20228;-89
2022/12/26 14:26:35;;;;;;;2.07;1.00;;;;;;;;;;5106678;28;20227;-89
2022/12/26 14:29:07;;;;;;;1.83;1.10;;;;;;;;;;5104782;28;20246;-89
2022/12/26 14:31:39;;;;;;;2.47;1.00;;;;;;;;;;5097649;28;20244;-89
2022/12/26 14:34:12;;;;;;;1.57;0.90;;;;;;;;;;5099752;28;20201;-89
2022/12/26 14:36:43;;;;;;;4.67;1.20;;;;;;;;;;5104621;28;20339;-89
2022/12/26 14:39:18;;;;;;;3.00;1.07;;;;;;;;;;5107745;28;20236;-89
2022/12/26 14:44:50;;;;;;;1.97;0.77;;;;;;;;;;5095800;28;20312;-89
2022/12/26 14:47:35;;;;;;;0.53;0.53;;;;;;;;;;5101093;28;20269;-89
2022/12/26 14:50:17;;;;;;;1.40;0.70;;;;;;;;;;5091646;28;20236;-89
2022/12/26 14:52:49;;;;;;;1.20;0.70;;;;;;;;;;5100823;28;20294;-89
2022/12/26 14:55:46;;;;;;;1.73;0.60;;;;;;;;;;5104564;28;20244;-89
2022/12/26 14:58:25;;;;;;;1.03;0.30;;;;;;;;;;5059202;28;20203;-89
2022/12/26 15:00:55;;;;;;;1.07;0.50;;;;;;;;;;5096440;28;20217;-90
2022/12/26 15:03:42;;;;;;;2.63;1.57;;;;;;;;;;5103134;28;20226;-89
2022/12/26 15:06:27;;;;;;;1.10;0.83;;;;;;;;;;5094749;28;20225;-89
2022/12/26 15:09:07;;;;;;;1.03;0.60;;;;;;;;;;5091969;28;20213;-89
2022/12/26 15:11:55;;;;;;;1.10;0.70;;;;;;;;;;5100550;28;20218;-89
2022/12/26 15:14:37;;;;;;;1.27;1.17;;;;;;;;;;5108730;28;20247;-89
2022/12/26 15:17:14;;;;;;;1.33;0.80;;;;;;;;;;5098025;28;20209;-90
2022/12/26 15:20:03;;;;;;;0.87;0.67;;;;;;;;;;5104549;28;20301;-90
2022/12/26 15:22:45;;;;;;;0.97;0.70;;;;;;;;;;5106982;28;20213;-89
2022/12/26 15:25:34;;;;;;;9.03;1.20;;;;;;;;;;5103885;28;20232;-89
2022/12/26 15:28:16;;;;;;;0.90;0.90;;;;;;;;;;5080731;28;20205;-90
2022/12/26 15:30:52;;;;;;;0.40;0.30;;;;;;;;;;5115499;27;20201;-90
2022/12/26 15:33:27;;;;;;;1.13;0.43;;;;;;;;;;5108423;28;20219;-89
2022/12/26 15:35:59;;;;;;;0.70;0.40;;;;;;;;;;5103726;28;20209;-90
2022/12/26 15:38:29;;;;;;;2.30;0.47;;;;;;;;;;5101682;28;20209;-89
2022/12/26 15:41:02;;;;;;;0.60;0.60;;;;;;;;;;5104221;28;20209;-90
2022/12/26 15:43:37;;;;;;;1.10;0.27;;;;;;;;;;5102045;28;20224;-89
2022/12/26 15:46:09;;;;;;;0.93;0.30;;;;;;;;;;5102932;28;20207;-90
2022/12/26 15:48:48;;;;;;;1.17;0.53;;;;;;;;;;5109465;28;20212;-89
2022/12/26 15:51:19;;;;;;;0.90;0.50;;;;;;;;;;5106071;28;20289;-89
2022/12/26 15:53:55;;;;;;;0.60;0.60;;;;;;;;;;5107399;28;20229;-89
2022/12/26 15:56:40;;;;;;;0.60;0.60;;;;;;;;;;5107375;28;20201;-89
2022/12/26 15:59:16;;;;;;;0.30;0.30;;;;;;;;;;5094019;28;20236;-89
2022/12/26 16:01:46;;;;;;;0.80;0.50;;;;;;;;;;5106787;28;20213;-89
2022/12/26 16:04:18;;;;;;;1.57;0.80;;;;;;;;;;5104552;27;20320;-89
2022/12/26 16:07:01;;;;;;;0.60;0.60;;;;;;;;;;5107470;28;20224;-90
2022/12/26 16:09:37;;;;;;;1.10;0.90;;;;;;;;;;5093973;28;20213;-89
2022/12/26 16:12:19;;;;;;;1.00;0.77;;;;;;;;;;5101452;28;20259;-89
2022/12/26 16:14:49;;;;;;;2.13;0.80;;;;;;;;;;5102255;28;20198;-89
2022/12/26 16:17:21;;;;;;;1.13;1.03;;;;;;;;;;5107373;28;20197;-89
2022/12/26 16:19:51;;;;;;;1.70;0.90;;;;;;;;;;5104483;28;20209;-89
2022/12/26 16:25:14;;;;;;;1.27;0.90;;;;;;;;;;5102784;27;20224;-90
2022/12/26 16:27:42;;;;;;;1.77;0.73;;;;;;;;;;5099866;27;20213;-90
2022/12/26 16:30:14;;;;;;;0.93;0.70;;;;;;;;;;5100461;27;20275;-89
2022/12/26 16:32:43;;;;;;;0.50;0.50;;;;;;;;;;5097714;28;20200;-89
2022/12/26 16:35:20;;;;;;;1.63;1.30;;;;;;;;;;5109189;28;20201;-90
2022/12/26 16:37:49;;;;;;;1.97;0.70;;;;;;;;;;5108942;27;20357;-89
2022/12/26 16:40:19;;;;;;;2.53;0.70;;;;;;;;;;5104624;28;20259;-89
2022/12/26 16:45:57;;;;;;;0.83;0.80;;;;;;;;;;5098619;28;20194;-89
2022/12/26 16:48:26;;;;;;;0.60;0.60;;;;;;;;;;5105061;28;20198;-89
2022/12/26 16:51:16;;;;;;;1.03;0.80;;;;;;;;;;5103109;28;20262;-89
2022/12/26 17:00:53;;;;;;;1.27;0.70;;;;;;;;;;5033734;28;20226;-90
2022/12/26 17:03:32;;;;;;;1.33;0.70;;;;;;;;;;5059118;28;20250;-90
2022/12/26 17:06:07;;;;;;;2.37;0.90;;;;;;;;;;5059309;28;20209;-90
2022/12/26 17:09:08;;;;;;;2.93;1.10;;;;;;;;;;5066070;28;20207;-89
2022/12/26 17:11:37;;;;;;;1.00;0.60;;;;;;;;;;5065269;28;20209;-90
2022/12/26 17:14:48;;;;;;;1.40;0.80;;;;;;;;;;5066007;28;20302;-90
2022/12/26 17:17:35;;;;;;;1.03;1.00;;;;;;;;;;5060004;28;20264;-90
2022/12/26 17:20:28;;;;;;;1.33;1.23;;;;;;;;;;5061582;28;20204;-89
2022/12/26 17:22:57;;;;;;;0.73;0.70;;;;;;;;;;5046194;28;20210;-88
2022/12/26 17:25:26;;;;;;;2.30;1.00;;;;;;;;;;5060166;28;20219;-89
2022/12/26 17:28:16;;;;;;;0.90;0.90;;;;;;;;;;5061563;28;20202;-89
2022/12/26 17:30:45;;;;;;;2.50;1.00;;;;;;;;;;5060255;28;20297;-88
2022/12/26 17:33:13;;;;;;;1.80;1.00;;;;;;;;;;5060205;28;20223;-89
2022/12/26 17:35:41;;;;;;;0.63;0.63;;;;;;;;;;5058135;28;20195;-89
2022/12/26 17:38:13;;;;;;;2.47;1.20;;;;;;;;;;5058956;28;20206;-89
2022/12/26 17:40:41;;;;;;;0.87;0.80;;;;;;;;;;5061779;28;20211;-89
2022/12/26 17:43:19;;;;;;;1.33;0.87;;;;;;;;;;5060821;28;20261;-89